»·PEaware :: N313N KMYF-KSMO

N313N :: KMYF-KSMO

FLIGHT INFORMATION

Flight Status: Arrived
Operator: Privately registered:
United States
More flights under this callsign
Pilot: Damien O. (2415)
Aircraft: GULFSTREAM G-1159C GULFSTREAM 4
(GLF4)
More flights by this aircraft type
Origin: KMYF Montgomery
United States
Destination: KSMO Santa Monica Mun
United States
More flights between these airports :: More routes between these airports
Route: CWARD2 SLI V459 DARTS
File this flight plan on PilotEdge
Remarks:
Altitude:
(Current/Filed)
10,000ft
Speed:
(Current/Filed)
280kts
Departed: 11-Feb-19 10:27 AM
Arrived: 11-Feb-19 11:00 AM
Distance/Time
Traveled:
97nm/0:33
Distance/Time
To Go:
Arrived

Flight Plot

Page will automatically refresh every two minutes.

Flight plan parsing failed; only flown route is shown


Map Options




Map Legend


Flown Route
Filed Route
Departure Airport
Arrival Airport
Navaid (VOR, NDB)
Fix

Horizontal Profiles

Position Reports

Time Latitude Longitude Heading Altitude Ground
Speed
11-Feb-19 10:11 32.813313 -117.144062 359 421ft 0kts
11-Feb-19 10:12 32.813313 -117.144062 359 421ft 0kts
11-Feb-19 10:13 32.813313 -117.144062 359 421ft 0kts
11-Feb-19 10:14 32.813313 -117.144062 359 421ft 0kts
11-Feb-19 10:15 32.813313 -117.144062 359 421ft 0kts
11-Feb-19 10:16 32.813313 -117.144062 359 421ft 0kts
11-Feb-19 10:17 32.813313 -117.144062 359 421ft 0kts
11-Feb-19 10:18 32.813313 -117.144062 359 421ft 0kts
11-Feb-19 10:19 32.813313 -117.144062 359 421ft 0kts
11-Feb-19 10:20 32.813313 -117.144062 359 421ft 0kts
11-Feb-19 10:21 32.813618 -117.144139 344 421ft 28kts
11-Feb-19 10:22 32.815013 -117.142695 82 421ft 11kts
11-Feb-19 10:23 32.813656 -117.138987 113 421ft 18kts
11-Feb-19 10:24 32.811923 -117.134598 117 421ft 19kts
11-Feb-19 10:25 32.811952 -117.131476 26 421ft 0kts
11-Feb-19 10:26 32.814464 -117.135239 295 421ft 120kts
11-Feb-19 10:27 32.829296 -117.196735 281 1655ft 227kts
11-Feb-19 10:28 32.841603 -117.262170 289 4047ft 246kts
11-Feb-19 10:29 32.914860 -117.264737 346 7740ft 291kts
11-Feb-19 10:30 32.970966 -117.319853 322 9844ft 280kts
11-Feb-19 10:31 33.026042 -117.365766 323 9851ft 274kts
11-Feb-19 10:32 33.082271 -117.412159 322 9852ft 273kts
11-Feb-19 10:33 33.132897 -117.454255 322 9762ft 308kts
11-Feb-19 10:34 33.195015 -117.505684 322 9721ft 307kts
11-Feb-19 10:35 33.257584 -117.557225 322 9722ft 308kts
11-Feb-19 10:36 33.328051 -117.614992 322 9722ft 308kts
11-Feb-19 10:37 33.391243 -117.666984 322 9724ft 306kts
11-Feb-19 10:38 33.453961 -117.719029 322 9722ft 305kts
11-Feb-19 10:39 33.520680 -117.773536 322 9717ft 329kts
11-Feb-19 10:40 33.578907 -117.820618 322 9717ft 329kts
11-Feb-19 10:41 33.634186 -117.865208 322 9717ft 329kts
11-Feb-19 10:42 33.687962 -117.913974 312 9722ft 326kts
11-Feb-19 10:43 33.733577 -117.968656 311 8523ft 326kts
11-Feb-19 10:44 33.773286 -118.018036 311 7236ft 312kts
11-Feb-19 10:45 33.809478 -118.058998 329 6718ft 257kts
11-Feb-19 10:46 33.849147 -118.086568 329 6710ft 268kts
11-Feb-19 10:47 33.892393 -118.116747 329 6708ft 267kts
11-Feb-19 10:48 33.940700 -118.149045 334 6709ft 267kts
11-Feb-19 10:49 33.984389 -118.174282 334 6759ft 237kts
11-Feb-19 10:50 34.017623 -118.193532 334 5717ft 213kts
11-Feb-19 10:51 34.051871 -118.213903 334 4382ft 202kts
11-Feb-19 10:52 34.081868 -118.240373 307 3002ft 195kts
11-Feb-19 10:53 34.091158 -118.281603 278 2698ft 191kts
11-Feb-19 10:54 34.087379 -118.326599 248 2678ft 189kts
11-Feb-19 10:56 34.067361 -118.362293 242 2198ft 166kts
11-Feb-19 10:57 34.052483 -118.396925 241 1554ft 168kts
11-Feb-19 10:58 34.034231 -118.429939 228 923ft 162kts
11-Feb-19 10:59 34.014620 -118.452628 223 142ft 57kts
11-Feb-19 11:00 34.012926 -118.454881 55 142ft 19kts
11-Feb-19 11:01 34.013528 -118.453178 40 142ft 0kts
11-Feb-19 11:02 34.013528 -118.453178 40 142ft 0kts
11-Feb-19 11:03 34.013528 -118.453178 40 142ft 0kts
11-Feb-19 11:04 34.013528 -118.453178 40 142ft 0kts
11-Feb-19 11:05 34.013528 -118.453178 40 142ft 0kts
11-Feb-19 11:06 34.013528 -118.453178 40 142ft 0kts
11-Feb-19 11:07 34.013528 -118.453178 40 142ft 0kts
11-Feb-19 11:08 34.013528 -118.453178 40 142ft 0kts
11-Feb-19 11:09 34.013528 -118.453178 40 142ft 0kts
11-Feb-19 11:10 34.013528 -118.453178 40 142ft 0kts

Navigation Log

Ident Type
Flight plan parsing failed, navigation log unavailable